Azalia, Michigan
Current Conditions -  °F | °C
As of 4:34 PM on Friday 24 Oct 2014 (Local Time) from KTTF Reporting Station
Overcast Overcast  
Wind Chill: 61°   Ceiling: 4100
Heat Index: 61°   Visibility: 10mi
Dew Point: 46°   Wind: 10mph
Humidity: 59%   Direction: 250°WSW
Pressure: 29.99"   Gusts: NA
Location:  42.02°N, 83.67°W
Report Text: KTTF 242034Z AUTO 25009KT 10SM OVC041 16/08 A2999 RMK AO2
Loading
Personal Weather Stations






























Interactive Weather Map New forecast layout! Learn more

10-Day Weather Forecast

Advertisements
Track Severe Weather on mobile